sensor_id;sensor_type;location;lat;lon;timestamp;pressure;altitude;pressure_sealevel;temperature;humidity
5966;BME280;3009;43.224;27.976;2023-07-20T00:01:24;99874.06;;;23.28;100.00
5966;BME280;3009;43.224;27.976;2023-07-20T00:03:53;99859.97;;;23.29;100.00
5966;BME280;3009;43.224;27.976;2023-07-20T00:06:23;99842.44;;;23.27;100.00
5966;BME280;3009;43.224;27.976;2023-07-20T00:08:54;99846.34;;;23.26;100.00
5966;BME280;3009;43.224;27.976;2023-07-20T00:11:26;99840.13;;;23.25;100.00
5966;BME280;3009;43.224;27.976;2023-07-20T00:13:55;99836.97;;;23.27;100.00
5966;BME280;3009;43.224;27.976;2023-07-20T00:16:24;99828.38;;;23.25;100.00
5966;BME280;3009;43.224;27.976;2023-07-20T00:18:53;99822.91;;;23.25;100.00
5966;BME280;3009;43.224;27.976;2023-07-20T00:21:21;99830.00;;;23.22;100.00
5966;BME280;3009;43.224;27.976;2023-07-20T00:23:50;99835.50;;;23.18;100.00
5966;BME280;3009;43.224;27.976;2023-07-20T00:26:18;99831.59;;;23.20;100.00
5966;BME280;3009;43.224;27.976;2023-07-20T00:28:50;99836.28;;;23.19;100.00
5966;BME280;3009;43.224;27.976;2023-07-20T00:31:18;99826.84;;;23.24;100.00
5966;BME280;3009;43.224;27.976;2023-07-20T00:33:47;99836.25;;;23.23;100.00
5966;BME280;3009;43.224;27.976;2023-07-20T00:36:16;99836.25;;;23.23;100.00
5966;BME280;3009;43.224;27.976;2023-07-20T00:38:45;99839.31;;;23.28;100.00
5966;BME280;3009;43.224;27.976;2023-07-20T00:41:13;99844.03;;;23.24;100.00
5966;BME280;3009;43.224;27.976;2023-07-20T00:43:41;99836.97;;;23.27;100.00
5966;BME280;3009;43.224;27.976;2023-07-20T00:46:11;99839.31;;;23.25;100.00
5966;BME280;3009;43.224;27.976;2023-07-20T00:48:41;99830.75;;;23.23;100.00
5966;BME280;3009;43.224;27.976;2023-07-20T00:51:10;99820.69;;;23.16;100.00
5966;BME280;3009;43.224;27.976;2023-07-20T00:53:38;99821.13;;;23.11;100.00
5966;BME280;3009;43.224;27.976;2023-07-20T00:56:07;99819.94;;;23.08;100.00
5966;BME280;3009;43.224;27.976;2023-07-20T00:58:36;99827.84;;;23.03;100.00
5966;BME280;3009;43.224;27.976;2023-07-20T01:01:04;99846.19;;;23.02;100.00
5966;BME280;3009;43.224;27.976;2023-07-20T01:03:37;99845.34;;;23.05;100.00
5966;BME280;3009;43.224;27.976;2023-07-20T01:06:14;99825.81;;;23.10;100.00
5966;BME280;3009;43.224;27.976;2023-07-20T01:08:50;99834.38;;;23.12;100.00
5966;BME280;3009;43.224;27.976;2023-07-20T01:11:32;99822.63;;;23.19;100.00
5966;BME280;3009;43.224;27.976;2023-07-20T01:14:05;99826.13;;;23.20;100.00
5966;BME280;3009;43.224;27.976;2023-07-20T01:16:33;99814.34;;;23.23;100.00
5966;BME280;3009;43.224;27.976;2023-07-20T01:19:03;99810.13;;;23.18;100.00
5966;BME280;3009;43.224;27.976;2023-07-20T01:21:39;99809.38;;;23.14;100.00
5966;BME280;3009;43.224;27.976;2023-07-20T01:24:41;99802.81;;;23.04;100.00
5966;BME280;3009;43.224;27.976;2023-07-20T01:30:28;99818.19;;;22.91;100.00
5966;BME280;3009;43.224;27.976;2023-07-20T01:33:05;99806.50;;;22.87;100.00
5966;BME280;3009;43.224;27.976;2023-07-20T01:35:36;99802.94;;;22.93;100.00
5966;BME280;3009;43.224;27.976;2023-07-20T01:38:07;99813.72;;;23.08;100.00
5966;BME280;3009;43.224;27.976;2023-07-20T01:40:37;99822.09;;;23.28;100.00
5966;BME280;3009;43.224;27.976;2023-07-20T01:43:06;99830.16;;;23.42;100.00
5966;BME280;3009;43.224;27.976;2023-07-20T01:45:35;99814.78;;;23.52;100.00
5966;BME280;3009;43.224;27.976;2023-07-20T01:48:05;99820.97;;;23.60;100.00
5966;BME280;3009;43.224;27.976;2023-07-20T01:50:34;99848.94;;;23.71;100.00
5966;BME280;3009;43.224;27.976;2023-07-20T01:53:02;99879.06;;;23.71;100.00
5966;BME280;3009;43.224;27.976;2023-07-20T01:55:31;99882.94;;;23.74;100.00
5966;BME280;3009;43.224;27.976;2023-07-20T01:57:59;99894.34;;;23.68;100.00
5966;BME280;3009;43.224;27.976;2023-07-20T02:00:28;99888.84;;;23.72;100.00
5966;BME280;3009;43.224;27.976;2023-07-20T02:02:57;99877.50;;;23.70;100.00
5966;BME280;3009;43.224;27.976;2023-07-20T02:05:27;99884.59;;;23.67;100.00
5966;BME280;3009;43.224;27.976;2023-07-20T02:07:56;99883.44;;;23.65;100.00
5966;BME280;3009;43.224;27.976;2023-07-20T02:10:24;99876.19;;;23.51;100.00
5966;BME280;3009;43.224;27.976;2023-07-20T02:12:53;99875.03;;;23.48;100.00
5966;BME280;3009;43.224;27.976;2023-07-20T02:15:21;99859.56;;;23.34;100.00
5966;BME280;3009;43.224;27.976;2023-07-20T02:17:50;99850.66;;;23.27;100.00
5966;BME280;3009;43.224;27.976;2023-07-20T02:20:19;99844.91;;;23.17;100.00
5966;BME280;3009;43.224;27.976;2023-07-20T02:22:49;99847.06;;;23.33;100.00
5966;BME280;3009;43.224;27.976;2023-07-20T02:25:17;99826.66;;;23.42;100.00
5966;BME280;3009;43.224;27.976;2023-07-20T02:27:45;99824.19;;;23.51;100.00
5966;BME280;3009;43.224;27.976;2023-07-20T02:30:14;99820.25;;;23.52;100.00
5966;BME280;3009;43.224;27.976;2023-07-20T02:32:43;99809.28;;;23.56;100.00
5966;BME280;3009;43.224;27.976;2023-07-20T02:35:12;99814.69;;;23.59;100.00
5966;BME280;3009;43.224;27.976;2023-07-20T02:37:41;99810.72;;;23.64;100.00
5966;BME280;3009;43.224;27.976;2023-07-20T02:40:11;99811.09;;;23.66;100.00
5966;BME280;3009;43.224;27.976;2023-07-20T02:42:40;99801.44;;;23.58;100.00
5966;BME280;3009;43.224;27.976;2023-07-20T02:45:08;99780.72;;;23.57;100.00
5966;BME280;3009;43.224;27.976;2023-07-20T02:47:37;99770.88;;;23.63;100.00
5966;BME280;3009;43.224;27.976;2023-07-20T02:50:07;99768.00;;;23.74;100.00
5966;BME280;3009;43.224;27.976;2023-07-20T02:52:36;99776.16;;;23.77;100.00
5966;BME280;3009;43.224;27.976;2023-07-20T02:55:04;99780.84;;;23.77;100.00
5966;BME280;3009;43.224;27.976;2023-07-20T02:57:34;99760.00;;;23.86;100.00
5966;BME280;3009;43.224;27.976;2023-07-20T03:00:04;99775.88;;;23.68;100.00
5966;BME280;3009;43.224;27.976;2023-07-20T03:02:33;99764.59;;;23.66;100.00
5966;BME280;3009;43.224;27.976;2023-07-20T03:05:02;99761.22;;;23.54;100.00
5966;BME280;3009;43.224;27.976;2023-07-20T03:07:32;99755.72;;;23.54;100.00
5966;BME280;3009;43.224;27.976;2023-07-20T03:10:01;99758.47;;;23.54;100.00
5966;BME280;3009;43.224;27.976;2023-07-20T03:12:30;99756.72;;;23.68;100.00
5966;BME280;3009;43.224;27.976;2023-07-20T03:15:02;99745.56;;;23.82;100.00
5966;BME280;3009;43.224;27.976;2023-07-20T03:17:30;99733.66;;;23.96;100.00
5966;BME280;3009;43.224;27.976;2023-07-20T03:19:59;99731.34;;;24.42;99.72
5966;BME280;3009;43.224;27.976;2023-07-20T03:22:28;99715.41;;;24.81;93.92
5966;BME280;3009;43.224;27.976;2023-07-20T03:24:56;99710.50;;;25.28;90.18
5966;BME280;3009;43.224;27.976;2023-07-20T03:27:24;99699.94;;;25.47;88.04
5966;BME280;3009;43.224;27.976;2023-07-20T03:29:53;99701.47;;;25.48;87.92
5966;BME280;3009;43.224;27.976;2023-07-20T03:32:23;99698.31;;;25.66;86.38
5966;BME280;3009;43.224;27.976;2023-07-20T03:34:51;99701.19;;;26.12;83.48
5966;BME280;3009;43.224;27.976;2023-07-20T03:37:20;99707.53;;;25.92;85.66
5966;BME280;3009;43.224;27.976;2023-07-20T03:39:48;99717.09;;;26.79;81.99
5966;BME280;3009;43.224;27.976;2023-07-20T03:42:17;99714.13;;;27.41;76.95
5966;BME280;3009;43.224;27.976;2023-07-20T03:44:45;99689.44;;;28.37;71.86
5966;BME280;3009;43.224;27.976;2023-07-20T03:47:14;99688.38;;;28.79;69.26
5966;BME280;3009;43.224;27.976;2023-07-20T03:49:44;99676.38;;;28.95;69.69
5966;BME280;3009;43.224;27.976;2023-07-20T03:52:13;99658.91;;;29.29;69.04
5966;BME280;3009;43.224;27.976;2023-07-20T03:54:41;99650.66;;;29.98;67.60
5966;BME280;3009;43.224;27.976;2023-07-20T03:57:11;99641.13;;;30.27;64.85
5966;BME280;3009;43.224;27.976;2023-07-20T03:59:39;99637.00;;;30.50;63.67
5966;BME280;3009;43.224;27.976;2023-07-20T04:02:12;99640.06;;;29.28;74.39
5966;BME280;3009;43.224;27.976;2023-07-20T04:04:41;99649.09;;;29.28;77.03
5966;BME280;3009;43.224;27.976;2023-07-20T04:07:11;99649.88;;;30.34;72.26
5966;BME280;3009;43.224;27.976;2023-07-20T04:09:40;99665.25;;;30.54;69.05
5966;BME280;3009;43.224;27.976;2023-07-20T04:12:09;99668.47;;;30.25;68.37
5966;BME280;3009;43.224;27.976;2023-07-20T04:14:37;99674.63;;;29.51;71.62
5966;BME280;3009;43.224;27.976;2023-07-20T04:17:06;99686.47;;;27.97;82.95
5966;BME280;3009;43.224;27.976;2023-07-20T04:19:34;99695.28;;;27.14;92.68
5966;BME280;3009;43.224;27.976;2023-07-20T04:22:03;99698.03;;;27.14;94.24
5966;BME280;3009;43.224;27.976;2023-07-20T04:24:33;99699.13;;;27.17;95.17
5966;BME280;3009;43.224;27.976;2023-07-20T04:27:02;99690.53;;;27.02;93.12
5966;BME280;3009;43.224;27.976;2023-07-20T04:29:33;99675.34;;;26.97;89.13
5966;BME280;3009;43.224;27.976;2023-07-20T04:32:01;99661.66;;;26.68;89.95
5966;BME280;3009;43.224;27.976;2023-07-20T04:34:29;99664.84;;;26.50;91.51
5966;BME280;3009;43.224;27.976;2023-07-20T04:36:58;99679.66;;;26.40;92.15
5966;BME280;3009;43.224;27.976;2023-07-20T04:39:26;99690.94;;;26.29;91.88
5966;BME280;3009;43.224;27.976;2023-07-20T04:41:59;99692.50;;;26.13;92.39
5966;BME280;3009;43.224;27.976;2023-07-20T04:44:27;99692.75;;;26.03;91.90
5966;BME280;3009;43.224;27.976;2023-07-20T04:46:56;99693.97;;;25.85;93.49
5966;BME280;3009;43.224;27.976;2023-07-20T04:49:24;99723.81;;;25.67;95.52
5966;BME280;3009;43.224;27.976;2023-07-20T04:51:53;99728.75;;;25.55;97.22
5966;BME280;3009;43.224;27.976;2023-07-20T04:54:22;99737.72;;;25.92;95.49
5966;BME280;3009;43.224;27.976;2023-07-20T04:56:51;99732.75;;;27.76;83.84
5966;BME280;3009;43.224;27.976;2023-07-20T04:59:21;99734.41;;;29.13;73.88
5966;BME280;3009;43.224;27.976;2023-07-20T05:01:49;99729.97;;;31.36;63.42
5966;BME280;3009;43.224;27.976;2023-07-20T05:04:18;99735.22;;;32.94;55.15
5966;BME280;3009;43.224;27.976;2023-07-20T05:06:48;99730.22;;;33.58;52.53
5966;BME280;3009;43.224;27.976;2023-07-20T05:09:16;99737.81;;;34.60;46.89
5966;BME280;3009;43.224;27.976;2023-07-20T05:11:48;99742.50;;;35.65;45.08
5966;BME280;3009;43.224;27.976;2023-07-20T05:14:16;99756.06;;;35.83;42.73
5966;BME280;3009;43.224;27.976;2023-07-20T05:16:46;99750.44;;;36.32;41.39
5966;BME280;3009;43.224;27.976;2023-07-20T05:19:15;99755.16;;;36.98;39.02
5966;BME280;3009;43.224;27.976;2023-07-20T05:21:43;99766.06;;;37.18;37.94
5966;BME280;3009;43.224;27.976;2023-07-20T05:24:12;99803.75;;;36.40;38.53
5966;BME280;3009;43.224;27.976;2023-07-20T05:26:40;99819.47;;;34.52;42.00
5966;BME280;3009;43.224;27.976;2023-07-20T05:29:08;99795.66;;;32.99;46.68
5966;BME280;3009;43.224;27.976;2023-07-20T05:31:37;99788.81;;;34.11;45.84
5966;BME280;3009;43.224;27.976;2023-07-20T05:34:07;99797.63;;;34.91;41.08
5966;BME280;3009;43.224;27.976;2023-07-20T05:36:35;99792.66;;;34.54;41.29
5966;BME280;3009;43.224;27.976;2023-07-20T05:39:04;99779.56;;;35.07;40.88
5966;BME280;3009;43.224;27.976;2023-07-20T05:41:33;99780.09;;;35.43;40.51
5966;BME280;3009;43.224;27.976;2023-07-20T05:44:01;99779.31;;;36.18;38.62
5966;BME280;3009;43.224;27.976;2023-07-20T05:46:30;99768.38;;;36.97;35.74
5966;BME280;3009;43.224;27.976;2023-07-20T05:49:14;99761.78;;;37.40;34.54
5966;BME280;3009;43.224;27.976;2023-07-20T05:51:42;99767.03;;;37.83;34.45
5966;BME280;3009;43.224;27.976;2023-07-20T05:54:11;99782.28;;;38.58;33.34
5966;BME280;3009;43.224;27.976;2023-07-20T05:56:39;99788.31;;;38.20;33.78
5966;BME280;3009;43.224;27.976;2023-07-20T05:59:08;99778.31;;;38.36;33.95
5966;BME280;3009;43.224;27.976;2023-07-20T06:01:36;99785.09;;;38.94;32.78
5966;BME280;3009;43.224;27.976;2023-07-20T06:04:05;99785.03;;;39.05;32.03
5966;BME280;3009;43.224;27.976;2023-07-20T06:06:35;99789.56;;;38.78;31.60
5966;BME280;3009;43.224;27.976;2023-07-20T06:09:03;99785.44;;;39.21;30.88
5966;BME280;3009;43.224;27.976;2023-07-20T06:11:34;99787.88;;;39.60;30.00
5966;BME280;3009;43.224;27.976;2023-07-20T06:14:03;99799.16;;;38.88;31.32
5966;BME280;3009;43.224;27.976;2023-07-20T06:16:32;99796.44;;;38.77;30.89
5966;BME280;3009;43.224;27.976;2023-07-20T06:19:00;99813.84;;;38.64;30.88
5966;BME280;3009;43.224;27.976;2023-07-20T06:21:29;99811.06;;;37.71;32.41
5966;BME280;3009;43.224;27.976;2023-07-20T06:23:59;99813.56;;;36.96;33.63
5966;BME280;3009;43.224;27.976;2023-07-20T06:26:28;99808.34;;;36.38;35.58
5966;BME280;3009;43.224;27.976;2023-07-20T06:28:57;99813.84;;;35.45;37.53
5966;BME280;3009;43.224;27.976;2023-07-20T06:31:25;99813.06;;;34.46;39.31
5966;BME280;3009;43.224;27.976;2023-07-20T06:33:54;99814.34;;;33.73;41.18
5966;BME280;3009;43.224;27.976;2023-07-20T06:36:22;99827.44;;;32.98;43.58
5966;BME280;3009;43.224;27.976;2023-07-20T06:38:52;99825.72;;;32.13;45.50
5966;BME280;3009;43.224;27.976;2023-07-20T06:41:25;99818.72;;;31.51;46.95
5966;BME280;3009;43.224;27.976;2023-07-20T06:43:57;99818.91;;;30.92;46.44
5966;BME280;3009;43.224;27.976;2023-07-20T06:46:26;99824.28;;;30.40;47.94
5966;BME280;3009;43.224;27.976;2023-07-20T06:48:54;99826.66;;;30.10;47.94
5966;BME280;3009;43.224;27.976;2023-07-20T06:51:26;99827.19;;;29.86;49.48
5966;BME280;3009;43.224;27.976;2023-07-20T06:53:55;99817.28;;;29.76;47.61
5966;BME280;3009;43.224;27.976;2023-07-20T06:56:26;99813.63;;;29.48;49.08
5966;BME280;3009;43.224;27.976;2023-07-20T06:58:56;99807.28;;;29.16;49.48
5966;BME280;3009;43.224;27.976;2023-07-20T07:01:25;99803.56;;;29.32;49.50
5966;BME280;3009;43.224;27.976;2023-07-20T07:03:54;99796.56;;;29.40;50.17
5966;BME280;3009;43.224;27.976;2023-07-20T07:06:23;99791.47;;;29.16;51.55
5966;BME280;3009;43.224;27.976;2023-07-20T07:08:52;99775.63;;;29.30;50.89
5966;BME280;3009;43.224;27.976;2023-07-20T07:11:21;99772.94;;;29.17;52.04
5966;BME280;3009;43.224;27.976;2023-07-20T07:13:52;99772.69;;;29.02;53.44
5966;BME280;3009;43.224;27.976;2023-07-20T07:16:23;99770.56;;;28.49;60.81
5966;BME280;3009;43.224;27.976;2023-07-20T07:18:53;99754.44;;;28.13;63.38
5966;BME280;3009;43.224;27.976;2023-07-20T07:21:26;99743.00;;;28.01;63.09
5966;BME280;3009;43.224;27.976;2023-07-20T07:23:55;99740.81;;;27.96;66.98
5966;BME280;3009;43.224;27.976;2023-07-20T07:26:25;99745.53;;;28.08;75.48
5966;BME280;3009;43.224;27.976;2023-07-20T07:28:56;99740.78;;;28.22;74.02
5966;BME280;3009;43.224;27.976;2023-07-20T07:31:25;99739.16;;;28.34;67.81
5966;BME280;3009;43.224;27.976;2023-07-20T07:33:53;99730.03;;;28.59;65.45
5966;BME280;3009;43.224;27.976;2023-07-20T07:36:22;99742.97;;;28.62;64.92
5966;BME280;3009;43.224;27.976;2023-07-20T07:38:51;99770.31;;;28.69;66.52
5966;BME280;3009;43.224;27.976;2023-07-20T07:41:23;99794.25;;;28.59;64.62
5966;BME280;3009;43.224;27.976;2023-07-20T07:43:51;99801.19;;;28.16;67.43
5966;BME280;3009;43.224;27.976;2023-07-20T07:46:21;99794.94;;;28.51;64.15
5966;BME280;3009;43.224;27.976;2023-07-20T07:48:50;99794.09;;;28.76;62.29
5966;BME280;3009;43.224;27.976;2023-07-20T07:51:20;99784.19;;;29.01;60.76
5966;BME280;3009;43.224;27.976;2023-07-20T07:53:48;99793.50;;;29.38;57.05
5966;BME280;3009;43.224;27.976;2023-07-20T07:56:17;99783.84;;;29.43;55.86
5966;BME280;3009;43.224;27.976;2023-07-20T07:58:51;99778.06;;;28.84;59.76
5966;BME280;3009;43.224;27.976;2023-07-20T08:01:21;99776.78;;;29.42;55.94
5966;BME280;3009;43.224;27.976;2023-07-20T08:03:50;99767.03;;;29.59;54.45
5966;BME280;3009;43.224;27.976;2023-07-20T08:06:19;99772.25;;;29.57;55.35
5966;BME280;3009;43.224;27.976;2023-07-20T08:08:48;99781.41;;;29.23;54.45
5966;BME280;3009;43.224;27.976;2023-07-20T08:11:16;99775.00;;;29.26;53.77
5966;BME280;3009;43.224;27.976;2023-07-20T08:13:48;99758.25;;;28.98;54.17
5966;BME280;3009;43.224;27.976;2023-07-20T08:16:17;99762.00;;;28.34;57.21
5966;BME280;3009;43.224;27.976;2023-07-20T08:18:47;99761.28;;;28.56;57.03
5966;BME280;3009;43.224;27.976;2023-07-20T08:21:16;99763.56;;;28.92;56.12
5966;BME280;3009;43.224;27.976;2023-07-20T08:23:45;99771.66;;;28.64;56.08
5966;BME280;3009;43.224;27.976;2023-07-20T08:26:15;99768.00;;;28.55;55.98
5966;BME280;3009;43.224;27.976;2023-07-20T08:28:45;99762.25;;;28.27;56.67
5966;BME280;3009;43.224;27.976;2023-07-20T08:31:16;99759.78;;;28.42;56.95
5966;BME280;3009;43.224;27.976;2023-07-20T08:33:44;99763.19;;;28.81;54.60
5966;BME280;3009;43.224;27.976;2023-07-20T08:36:14;99759.41;;;28.88;53.22
5966;BME280;3009;43.224;27.976;2023-07-20T08:38:43;99763.28;;;29.44;52.06
5966;BME280;3009;43.224;27.976;2023-07-20T08:41:12;99761.91;;;29.48;52.10
5966;BME280;3009;43.224;27.976;2023-07-20T08:43:42;99765.91;;;29.47;52.43
5966;BME280;3009;43.224;27.976;2023-07-20T08:46:12;99769.69;;;29.72;51.88
5966;BME280;3009;43.224;27.976;2023-07-20T08:48:43;99772.28;;;30.07;49.12
5966;BME280;3009;43.224;27.976;2023-07-20T08:51:15;99761.19;;;29.89;49.85
5966;BME280;3009;43.224;27.976;2023-07-20T08:53:45;99768.31;;;30.17;49.87
5966;BME280;3009;43.224;27.976;2023-07-20T08:56:14;99774.97;;;30.48;49.18
5966;BME280;3009;43.224;27.976;2023-07-20T08:58:44;99769.09;;;30.92;47.20
5966;BME280;3009;43.224;27.976;2023-07-20T09:01:14;99763.03;;;31.40;45.66
5966;BME280;3009;43.224;27.976;2023-07-20T09:03:44;99766.91;;;31.76;45.11
5966;BME280;3009;43.224;27.976;2023-07-20T09:06:14;99767.66;;;32.10;44.21
5966;BME280;3009;43.224;27.976;2023-07-20T09:08:43;99767.38;;;31.74;44.63
5966;BME280;3009;43.224;27.976;2023-07-20T09:11:12;99767.50;;;32.13;43.18
5966;BME280;3009;43.224;27.976;2023-07-20T09:13:42;99768.81;;;32.42;41.80
5966;BME280;3009;43.224;27.976;2023-07-20T09:16:13;99759.41;;;32.64;41.46
5966;BME280;3009;43.224;27.976;2023-07-20T09:18:42;99762.88;;;32.35;42.07
5966;BME280;3009;43.224;27.976;2023-07-20T09:24:38;99759.34;;;32.73;39.59
5966;BME280;3009;43.224;27.976;2023-07-20T09:27:08;99753.84;;;32.64;41.32
5966;BME280;3009;43.224;27.976;2023-07-20T09:29:47;99746.81;;;32.78;40.40
5966;BME280;3009;43.224;27.976;2023-07-20T09:32:18;99751.69;;;32.83;41.43
5966;BME280;3009;43.224;27.976;2023-07-20T09:34:51;99756.69;;;32.55;40.92
5966;BME280;3009;43.224;27.976;2023-07-20T09:37:20;99746.63;;;32.66;41.57
5966;BME280;3009;43.224;27.976;2023-07-20T09:39:52;99743.38;;;32.83;42.10
5966;BME280;3009;43.224;27.976;2023-07-20T09:42:24;99744.09;;;32.29;40.78
5966;BME280;3009;43.224;27.976;2023-07-20T09:44:56;99738.00;;;32.25;41.77
5966;BME280;3009;43.224;27.976;2023-07-20T09:47:25;99745.78;;;32.51;40.73
5966;BME280;3009;43.224;27.976;2023-07-20T09:49:58;99725.56;;;32.75;42.45
5966;BME280;3009;43.224;27.976;2023-07-20T09:52:31;99732.28;;;32.83;40.97
5966;BME280;3009;43.224;27.976;2023-07-20T09:55:05;99716.84;;;32.82;41.29
5966;BME280;3009;43.224;27.976;2023-07-20T09:57:35;99719.94;;;32.84;41.27
5966;BME280;3009;43.224;27.976;2023-07-20T10:00:05;99725.84;;;32.77;41.32
5966;BME280;3009;43.224;27.976;2023-07-20T10:02:43;99717.81;;;32.79;41.71
5966;BME280;3009;43.224;27.976;2023-07-20T10:05:12;99716.53;;;32.65;39.79
5966;BME280;3009;43.224;27.976;2023-07-20T10:07:44;99702.00;;;32.85;38.72
5966;BME280;3009;43.224;27.976;2023-07-20T10:10:18;99702.66;;;32.65;38.59
5966;BME280;3009;43.224;27.976;2023-07-20T10:12:48;99711.94;;;32.62;39.95
5966;BME280;3009;43.224;27.976;2023-07-20T10:15:23;99717.53;;;32.77;41.18
5966;BME280;3009;43.224;27.976;2023-07-20T10:18:02;99698.56;;;31.97;48.36
5966;BME280;3009;43.224;27.976;2023-07-20T10:20:34;99705.81;;;31.94;53.14
5966;BME280;3009;43.224;27.976;2023-07-20T10:23:04;99705.72;;;32.13;56.42
5966;BME280;3009;43.224;27.976;2023-07-20T10:25:34;99708.19;;;32.11;70.68
5966;BME280;3009;43.224;27.976;2023-07-20T10:28:05;99705.41;;;32.11;69.06
5966;BME280;3009;43.224;27.976;2023-07-20T10:30:34;99698.56;;;31.97;65.26
5966;BME280;3009;43.224;27.976;2023-07-20T10:33:04;99701.81;;;31.95;61.42
5966;BME280;3009;43.224;27.976;2023-07-20T10:35:51;99699.97;;;31.92;65.05
5966;BME280;3009;43.224;27.976;2023-07-20T10:38:19;99696.47;;;32.07;67.77
5966;BME280;3009;43.224;27.976;2023-07-20T10:40:55;99697.44;;;32.04;63.45
5966;BME280;3009;43.224;27.976;2023-07-20T10:43:24;99693.22;;;31.69;69.62
5966;BME280;3009;43.224;27.976;2023-07-20T10:45:53;99693.16;;;31.78;70.28
5966;BME280;3009;43.224;27.976;2023-07-20T10:48:22;99696.63;;;31.88;68.18
5966;BME280;3009;43.224;27.976;2023-07-20T10:51:19;99690.06;;;31.43;71.21
5966;BME280;3009;43.224;27.976;2023-07-20T10:53:48;99696.31;;;31.28;76.85
5966;BME280;3009;43.224;27.976;2023-07-20T10:56:21;99697.25;;;31.25;77.51
5966;BME280;3009;43.224;27.976;2023-07-20T10:58:55;99686.19;;;31.16;75.30
5966;BME280;3009;43.224;27.976;2023-07-20T11:01:28;99692.50;;;31.17;79.38
5966;BME280;3009;43.224;27.976;2023-07-20T11:03:59;99697.56;;;31.18;79.95
5966;BME280;3009;43.224;27.976;2023-07-20T11:06:31;99681.75;;;31.09;84.03
5966;BME280;3009;43.224;27.976;2023-07-20T11:09:08;99683.44;;;31.07;85.93
5966;BME280;3009;43.224;27.976;2023-07-20T11:11:40;99681.94;;;30.87;82.59
5966;BME280;3009;43.224;27.976;2023-07-20T11:14:11;99693.63;;;30.91;82.65
5966;BME280;3009;43.224;27.976;2023-07-20T11:16:49;99690.31;;;30.32;89.73
5966;BME280;3009;43.224;27.976;2023-07-20T11:19:20;99686.91;;;30.55;86.32
5966;BME280;3009;43.224;27.976;2023-07-20T11:21:54;99682.63;;;30.54;85.04
5966;BME280;3009;43.224;27.976;2023-07-20T11:24:30;99670.03;;;30.44;87.93
5966;BME280;3009;43.224;27.976;2023-07-20T11:27:01;99666.63;;;30.49;81.52
5966;BME280;3009;43.224;27.976;2023-07-20T11:29:30;99666.13;;;30.69;75.10
5966;BME280;3009;43.224;27.976;2023-07-20T11:32:00;99660.72;;;30.84;75.93
5966;BME280;3009;43.224;27.976;2023-07-20T11:34:32;99668.78;;;30.45;78.58
5966;BME280;3009;43.224;27.976;2023-07-20T11:37:01;99660.81;;;30.47;78.59
5966;BME280;3009;43.224;27.976;2023-07-20T11:39:33;99653.28;;;30.48;83.13
5966;BME280;3009;43.224;27.976;2023-07-20T11:42:05;99649.28;;;30.49;85.74
5966;BME280;3009;43.224;27.976;2023-07-20T11:44:34;99644.19;;;30.66;83.83
5966;BME280;3009;43.224;27.976;2023-07-20T11:47:04;99636.50;;;30.61;83.41
5966;BME280;3009;43.224;27.976;2023-07-20T11:49:37;99637.28;;;30.61;80.18
5966;BME280;3009;43.224;27.976;2023-07-20T11:52:07;99632.97;;;30.60;78.94
5966;BME280;3009;43.224;27.976;2023-07-20T11:54:37;99639.28;;;30.61;77.14
5966;BME280;3009;43.224;27.976;2023-07-20T11:57:16;99639.88;;;30.65;78.34
5966;BME280;3009;43.224;27.976;2023-07-20T11:59:53;99635.13;;;30.47;79.61
5966;BME280;3009;43.224;27.976;2023-07-20T12:02:26;99638.06;;;30.25;79.67
5966;BME280;3009;43.224;27.976;2023-07-20T12:04:55;99636.69;;;30.01;79.64
5966;BME280;3009;43.224;27.976;2023-07-20T12:07:27;99628.50;;;29.79;84.35
5966;BME280;3009;43.224;27.976;2023-07-20T12:10:06;99623.63;;;29.83;85.32
5966;BME280;3009;43.224;27.976;2023-07-20T12:12:38;99627.47;;;30.04;84.66
5966;BME280;3009;43.224;27.976;2023-07-20T12:15:20;99626.22;;;30.15;82.16
5966;BME280;3009;43.224;27.976;2023-07-20T12:17:50;99623.63;;;30.20;80.91
5966;BME280;3009;43.224;27.976;2023-07-20T12:20:26;99620.25;;;30.16;77.29
5966;BME280;3009;43.224;27.976;2023-07-20T12:23:00;99624.53;;;30.17;78.23
5966;BME280;3009;43.224;27.976;2023-07-20T12:25:37;99613.19;;;30.06;78.45
5966;BME280;3009;43.224;27.976;2023-07-20T12:28:09;99619.00;;;30.17;80.11
5966;BME280;3009;43.224;27.976;2023-07-20T12:30:38;99615.03;;;30.18;80.34
5966;BME280;3009;43.224;27.976;2023-07-20T12:33:06;99620.09;;;30.29;83.71
5966;BME280;3009;43.224;27.976;2023-07-20T12:35:35;99618.09;;;30.11;84.68
5966;BME280;3009;43.224;27.976;2023-07-20T12:38:04;99620.25;;;30.07;84.30
5966;BME280;3009;43.224;27.976;2023-07-20T12:40:33;99617.34;;;30.01;85.52
5966;BME280;3009;43.224;27.976;2023-07-20T12:43:03;99612.25;;;29.91;87.37
5966;BME280;3009;43.224;27.976;2023-07-20T12:45:35;99611.19;;;29.88;87.27
5966;BME280;3009;43.224;27.976;2023-07-20T12:48:04;99607.06;;;29.93;87.37
5966;BME280;3009;43.224;27.976;2023-07-20T12:50:33;99620.25;;;29.89;87.77
5966;BME280;3009;43.224;27.976;2023-07-20T12:53:01;99615.94;;;29.97;86.80
5966;BME280;3009;43.224;27.976;2023-07-20T12:55:31;99614.59;;;30.01;86.28
5966;BME280;3009;43.224;27.976;2023-07-20T12:57:59;99616.88;;;30.03;86.38
5966;BME280;3009;43.224;27.976;2023-07-20T13:00:28;99605.50;;;29.82;91.58
5966;BME280;3009;43.224;27.976;2023-07-20T13:02:58;99611.66;;;29.96;91.68
5966;BME280;3009;43.224;27.976;2023-07-20T13:05:29;99613.50;;;29.90;94.04
5966;BME280;3009;43.224;27.976;2023-07-20T13:08:01;99612.41;;;29.87;95.67
5966;BME280;3009;43.224;27.976;2023-07-20T13:10:34;99612.22;;;29.72;96.81
5966;BME280;3009;43.224;27.976;2023-07-20T13:13:02;99616.22;;;29.80;96.06
5966;BME280;3009;43.224;27.976;2023-07-20T13:15:31;99615.72;;;29.54;98.53
5966;BME280;3009;43.224;27.976;2023-07-20T13:18:02;99616.78;;;29.38;100.00
5966;BME280;3009;43.224;27.976;2023-07-20T13:20:30;99616.81;;;29.57;100.00
5966;BME280;3009;43.224;27.976;2023-07-20T13:22:59;99615.91;;;29.69;100.00
5966;BME280;3009;43.224;27.976;2023-07-20T13:25:27;99618.97;;;29.71;100.00
5966;BME280;3009;43.224;27.976;2023-07-20T13:27:56;99617.56;;;29.57;100.00
5966;BME280;3009;43.224;27.976;2023-07-20T13:30:24;99611.13;;;29.60;100.00